Time;durP1;ratioP1;P1;durP2;ratioP2;P2;SDS_P1;SDS_P2;PMS_P1;PMS_P2;Temp;Humidity;BMP_temperature;BMP_pressure;BME280_temperature;BME280_humidity;BME280_pressure;Samples;Min_cycle;Max_cycle;Signal;HPM_P1;HPM_P2
2023/05/17 00:00:50;;;;;;;11.50;3.05;;;9.20;99.90;;;;;;5115843;28;20027;-71
2023/05/17 00:03:15;;;;;;;10.95;3.38;;;9.20;99.90;;;;;;5115798;28;20039;-71
2023/05/17 00:05:41;;;;;;;10.73;3.22;;;9.10;99.90;;;;;;5114379;28;20044;-70
2023/05/17 00:08:06;;;;;;;8.25;3.08;;;9.10;99.90;;;;;;5115800;28;20075;-72
2023/05/17 00:10:32;;;;;;;11.45;3.28;;;9.10;99.90;;;;;;5115713;28;20467;-70
2023/05/17 00:12:57;;;;;;;9.15;3.05;;;9.20;99.90;;;;;;5115681;28;20051;-71
2023/05/17 00:15:23;;;;;;;13.73;2.90;;;9.10;99.90;;;;;;5115553;28;20035;-71
2023/05/17 00:17:49;;;;;;;5.63;2.55;;;9.20;99.90;;;;;;5115463;28;20075;-71
2023/05/17 00:20:15;;;;;;;14.77;3.42;;;9.10;99.90;;;;;;5115554;28;20375;-71
2023/05/17 00:22:42;;;;;;;6.43;3.05;;;9.20;99.90;;;;;;5115474;28;20087;-71
2023/05/17 00:25:07;;;;;;;;;;;9.20;99.90;;;;;;5115820;28;20046;-71
2023/05/17 00:27:33;;;;;;;10.23;2.90;;;9.30;99.90;;;;;;5114624;28;19916;-70
2023/05/17 00:29:58;;;;;;;15.65;3.22;;;9.30;99.90;;;;;;5115433;28;20350;-72
2023/05/17 00:32:24;;;;;;;9.90;2.80;;;9.90;99.90;;;;;;5115323;28;20088;-71
2023/05/17 00:34:50;;;;;;;14.45;3.30;;;9.30;99.90;;;;;;5115030;28;20043;-70
2023/05/17 00:37:15;;;;;;;10.10;3.17;;;9.30;99.90;;;;;;5114905;28;20028;-71
2023/05/17 00:39:41;;;;;;;11.45;3.03;;;9.30;99.90;;;;;;5115094;28;20046;-71
2023/05/17 00:42:07;;;;;;;10.95;3.45;;;9.30;99.90;;;;;;5115048;28;20155;-70
2023/05/17 00:44:32;;;;;;;14.23;2.40;;;9.20;99.90;;;;;;5115089;28;20041;-72
2023/05/17 00:46:58;;;;;;;11.85;2.97;;;9.80;99.90;;;;;;5114947;28;20036;-70
2023/05/17 00:49:25;;;;;;;7.72;2.08;;;9.10;99.90;;;;;;5113712;28;20050;-71
2023/05/17 00:51:52;;;;;;;;;;;9.00;99.90;;;;;;5115351;28;20086;-70
2023/05/17 00:54:18;;;;;;;7.90;2.03;;;8.90;99.90;;;;;;5114790;28;19923;-71
2023/05/17 00:56:43;;;;;;;11.70;2.33;;;9.70;99.90;;;;;;5114891;28;20047;-71
2023/05/17 00:59:12;;;;;;;14.32;3.05;;;8.70;99.90;;;;;;5114736;28;20039;-71
2023/05/17 01:01:41;;;;;;;14.20;3.30;;;8.70;99.90;;;;;;5114619;28;20126;-72
2023/05/17 01:04:08;;;;;;;9.45;2.67;;;8.70;99.90;;;;;;5115012;28;20437;-70
2023/05/17 01:06:35;;;;;;;11.88;2.47;;;8.60;99.90;;;;;;5114646;28;20499;-70
2023/05/17 01:09:01;;;;;;;10.05;2.28;;;8.60;99.90;;;;;;5114590;28;20035;-72
2023/05/17 01:11:44;;;;;;;9.60;2.30;;;9.10;99.90;;;;;;5113369;28;20067;-72
2023/05/17 01:14:19;;;;;;;15.73;2.67;;;8.40;99.90;;;;;;5114553;28;20051;-70
2023/05/17 01:16:54;;;;;;;16.15;2.67;;;8.40;99.90;;;;;;5114829;28;20079;-72
2023/05/17 01:19:55;;;;;;;9.68;2.30;;;8.30;99.90;;;;;;5114490;28;20035;-71
2023/05/17 01:22:46;;;;;;;9.27;2.22;;;8.20;99.90;;;;;;5114436;28;20487;-70
2023/05/17 01:25:50;;;;;;;13.40;2.83;;;8.20;99.90;;;;;;5114816;28;20051;-71
2023/05/17 01:28:16;;;;;;;8.13;2.10;;;8.10;99.90;;;;;;5041579;28;20050;-72
2023/05/17 01:30:45;;;;;;;8.52;1.98;;;8.00;99.90;;;;;;5113247;28;20039;-71
2023/05/17 01:33:11;;;;;;;9.88;2.10;;;8.10;99.90;;;;;;5112974;28;20122;-72
2023/05/17 01:35:37;;;;;;;6.45;2.47;;;7.90;99.90;;;;;;5114373;28;20071;-72
2023/05/17 01:38:02;;;;;;;13.75;2.63;;;7.90;99.90;;;;;;5113951;28;20483;-72
2023/05/17 01:40:32;;;;;;;7.95;2.20;;;7.80;99.90;;;;;;5114201;28;20088;-71
2023/05/17 01:43:09;;;;;;;11.05;2.20;;;7.70;99.90;;;;;;5114134;28;20038;-71
2023/05/17 01:45:45;;;;;;;8.15;2.10;;;7.70;99.90;;;;;;5112942;28;20161;-70
2023/05/17 01:48:27;;;;;;;9.10;2.22;;;7.70;99.90;;;;;;5114069;28;20036;-71
2023/05/17 01:50:55;;;;;;;7.75;2.03;;;7.70;99.90;;;;;;5114026;28;20043;-70
2023/05/17 01:53:47;;;;;;;11.68;2.53;;;7.60;99.90;;;;;;5114012;28;20409;-72
2023/05/17 01:56:24;;;;;;;9.98;2.65;;;7.60;99.90;;;;;;5113912;28;20176;-71
2023/05/17 01:58:52;;;;;;;12.02;2.13;;;7.60;99.90;;;;;;5112883;28;20352;-71
2023/05/17 02:01:18;;;;;;;10.60;2.00;;;7.60;99.90;;;;;;5114101;28;20047;-73
2023/05/17 02:03:48;;;;;;;5.53;2.07;;;7.60;99.90;;;;;;5113871;28;20050;-72
2023/05/17 02:06:14;;;;;;;11.05;2.33;;;8.30;99.90;;;;;;5113663;28;20292;-72
2023/05/17 02:08:40;;;;;;;9.20;2.10;;;7.70;99.90;;;;;;5113771;28;20039;-70
2023/05/17 02:11:05;;;;;;;9.30;2.13;;;7.70;99.90;;;;;;5114431;28;20477;-71
2023/05/17 02:13:31;;;;;;;6.25;2.17;;;7.80;99.90;;;;;;5114194;28;20039;-71
2023/05/17 02:16:03;;;;;;;16.73;2.72;;;7.80;99.90;;;;;;5113770;28;20490;-71
2023/05/17 02:18:29;;;;;;;17.30;2.30;;;7.90;99.90;;;;;;5113697;28;20479;-71
2023/05/17 02:20:55;;;;;;;13.83;2.27;;;7.90;99.90;;;;;;5113825;28;20036;-72
2023/05/17 02:23:21;;;;;;;10.80;2.15;;;8.00;99.90;;;;;;5113679;28;20655;-71
2023/05/17 02:25:46;;;;;;;7.85;2.53;;;8.00;99.90;;;;;;5113169;28;20050;-71
2023/05/17 02:28:12;;;;;;;14.93;2.83;;;8.00;99.90;;;;;;5113683;28;20066;-71
2023/05/17 02:30:40;;;;;;;8.85;2.53;;;8.00;99.90;;;;;;5113900;28;20114;-72
2023/05/17 02:33:07;;;;;;;11.50;3.33;;;7.90;99.90;;;;;;5113635;28;20046;-71
2023/05/17 02:35:33;;;;;;;19.38;2.65;;;7.90;99.90;;;;;;5113598;28;20088;-72
2023/05/17 02:37:59;;;;;;;10.77;2.90;;;7.90;99.90;;;;;;5113568;28;20476;-71
2023/05/17 02:40:25;;;;;;;15.77;2.92;;;7.80;99.90;;;;;;5113669;28;20379;-71
2023/05/17 02:42:51;;;;;;;10.85;2.33;;;7.80;99.90;;;;;;5113311;28;20039;-71
2023/05/17 02:45:16;;;;;;;9.25;2.58;;;7.80;99.90;;;;;;5113806;28;20031;-72
2023/05/17 02:47:42;;;;;;;7.93;1.90;;;7.70;99.90;;;;;;5113541;28;20108;-71
2023/05/17 02:50:08;;;;;;;15.27;3.33;;;7.70;99.90;;;;;;5115145;28;20513;-70
2023/05/17 02:52:34;;;;;;;11.60;2.50;;;7.60;99.90;;;;;;5117193;28;20050;-70
2023/05/17 02:54:59;;;;;;;11.43;2.42;;;7.60;99.90;;;;;;5117104;28;20039;-72
2023/05/17 02:57:25;;;;;;;8.65;1.83;;;7.60;99.90;;;;;;5117200;28;20035;-70
2023/05/17 02:59:51;;;;;;;8.20;2.15;;;7.50;99.90;;;;;;5117098;28;20074;-71
2023/05/17 03:02:16;;;;;;;11.40;1.98;;;7.50;99.90;;;;;;5116723;28;20130;-71
2023/05/17 03:04:42;;;;;;;10.18;2.38;;;7.50;99.90;;;;;;5117017;28;20091;-71
2023/05/17 03:07:08;;;;;;;11.98;2.63;;;7.40;99.90;;;;;;5116586;28;20196;-70
2023/05/17 03:09:34;;;;;;;17.95;2.35;;;7.30;99.90;;;;;;5116841;28;20027;-71
2023/05/17 03:11:59;;;;;;;5.57;1.83;;;7.30;99.90;;;;;;5116577;28;20042;-71
2023/05/17 03:14:25;;;;;;;12.52;2.33;;;7.30;99.90;;;;;;5116868;27;20048;-72
2023/05/17 03:16:51;;;;;;;20.00;2.83;;;7.20;99.90;;;;;;5116634;28;20027;-72
2023/05/17 03:19:16;;;;;;;9.70;3.28;;;7.10;99.90;;;;;;5116659;28;20042;-72
2023/05/17 03:21:42;;;;;;;6.32;2.08;;;7.10;99.90;;;;;;5116598;28;20478;-70
2023/05/17 03:24:08;;;;;;;10.90;2.53;;;7.00;99.90;;;;;;5116712;28;20046;-70
2023/05/17 03:26:33;;;;;;;11.63;2.72;;;7.00;99.90;;;;;;5116575;28;20028;-71
2023/05/17 03:28:59;;;;;;;10.02;2.55;;;7.20;99.90;;;;;;5116477;28;20124;-71
2023/05/17 03:31:25;;;;;;;14.80;2.88;;;7.00;99.90;;;;;;5116416;28;20035;-71
2023/05/17 03:33:51;;;;;;;16.23;2.80;;;6.90;99.90;;;;;;5116442;28;20173;-71
2023/05/17 03:36:16;;;;;;;11.85;2.63;;;6.80;99.90;;;;;;5116334;28;20461;-72
2023/05/17 03:38:42;;;;;;;13.70;2.38;;;7.60;99.90;;;;;;5116251;28;20478;-71
2023/05/17 03:41:08;;;;;;;12.70;2.75;;;6.90;99.90;;;;;;5116720;28;20035;-71
2023/05/17 03:43:33;;;;;;;9.50;2.65;;;6.80;99.90;;;;;;5116280;28;20058;-72
2023/05/17 03:45:59;;;;;;;10.02;2.42;;;6.80;99.90;;;;;;5116180;28;20142;-71
2023/05/17 03:48:25;;;;;;;11.05;2.47;;;6.80;99.90;;;;;;5115035;28;20043;-72
2023/05/17 03:50:50;;;;;;;9.82;2.35;;;6.80;99.90;;;;;;5116142;28;20047;-70
2023/05/17 03:53:16;;;;;;;10.50;2.55;;;6.80;99.90;;;;;;5115983;28;20061;-71
2023/05/17 03:55:41;;;;;;;18.00;2.38;;;6.90;99.90;;;;;;5115971;28;20122;-71
2023/05/17 03:58:07;;;;;;;11.00;2.25;;;7.00;99.90;;;;;;5115717;28;20040;-72
2023/05/17 04:00:33;;;;;;;17.05;2.85;;;7.00;99.90;;;;;;5115733;28;20127;-72
2023/05/17 04:02:59;;;;;;;12.90;2.03;;;7.10;99.90;;;;;;5114971;28;20455;-72
2023/05/17 04:05:25;;;;;;;10.50;2.90;;;7.40;99.90;;;;;;5116562;28;20047;-71
2023/05/17 04:07:51;;;;;;;6.93;2.17;;;7.20;99.90;;;;;;5115678;28;20068;-71
2023/05/17 04:10:16;;;;;;;13.40;4.05;;;7.20;99.90;;;;;;5115743;28;20119;-71
2023/05/17 04:12:42;;;;;;;9.60;2.80;;;8.00;99.90;;;;;;5115845;28;20126;-71
2023/05/17 04:15:10;;;;;;;13.40;2.60;;;7.40;99.90;;;;;;5115516;28;20412;-70
2023/05/17 04:17:36;;;;;;;9.85;2.33;;;7.40;99.90;;;;;;5114366;28;20039;-71
2023/05/17 04:20:05;;;;;;;13.07;3.15;;;7.40;99.90;;;;;;5115455;28;20047;-72
2023/05/17 04:22:31;;;;;;;7.38;2.38;;;7.50;99.90;;;;;;5115401;27;20051;-71
2023/05/17 04:24:57;;;;;;;12.20;2.33;;;7.50;99.90;;;;;;5115493;28;20049;-71
2023/05/17 04:27:22;;;;;;;11.13;2.15;;;8.00;99.90;;;;;;5115873;28;20126;-72
2023/05/17 04:29:48;;;;;;;6.47;2.65;;;7.50;99.90;;;;;;5115639;28;20039;-71
2023/05/17 04:32:13;;;;;;;12.85;2.33;;;8.00;99.90;;;;;;5115253;28;20546;-70
2023/05/17 04:34:39;;;;;;;9.65;2.67;;;7.70;99.90;;;;;;5114935;28;20048;-71
2023/05/17 04:37:05;;;;;;;8.40;2.07;;;7.70;99.90;;;;;;5115067;28;20045;-72
2023/05/17 04:39:31;;;;;;;9.88;2.03;;;7.70;99.90;;;;;;5115176;28;20114;-71
2023/05/17 04:41:57;;;;;;;10.13;2.10;;;7.80;99.90;;;;;;5115410;28;20096;-70
2023/05/17 04:44:22;;;;;;;8.70;2.25;;;7.80;99.90;;;;;;5115361;28;20044;-71
2023/05/17 04:46:48;;;;;;;10.68;2.05;;;8.00;99.90;;;;;;5115053;28;20096;-71
2023/05/17 04:49:14;;;;;;;9.57;2.33;;;7.90;99.90;;;;;;5115016;28;20459;-71
2023/05/17 04:51:39;;;;;;;15.10;2.30;;;8.00;99.90;;;;;;5114961;28;20039;-72
2023/05/17 04:54:07;;;;;;;11.82;2.42;;;8.00;99.90;;;;;;5114886;28;20040;-71
2023/05/17 04:56:34;;;;;;;8.65;2.33;;;8.00;99.90;;;;;;5114838;28;20035;-72
2023/05/17 04:59:00;;;;;;;;;;;8.10;99.90;;;;;;5114014;28;20114;-70
2023/05/17 05:01:25;;;;;;;9.20;2.08;;;8.10;99.90;;;;;;5114375;28;19988;-72
2023/05/17 05:03:51;;;;;;;8.73;2.28;;;8.10;99.90;;;;;;5114616;28;20039;-71
2023/05/17 05:06:16;;;;;;;8.05;1.98;;;8.80;99.90;;;;;;5114525;28;20049;-71
2023/05/17 05:08:42;;;;;;;10.18;2.00;;;8.90;99.90;;;;;;5114634;28;20031;-70
2023/05/17 05:11:08;;;;;;;8.55;2.10;;;8.30;99.90;;;;;;5114322;28;20352;-71
2023/05/17 05:13:36;;;;;;;16.70;2.33;;;8.40;99.90;;;;;;5113412;28;20032;-72
2023/05/17 05:16:02;;;;;;;6.20;1.80;;;8.30;99.90;;;;;;5114689;28;20375;-71
2023/05/17 05:18:28;;;;;;;7.82;1.98;;;8.30;99.90;;;;;;5114324;28;20045;-71
2023/05/17 05:20:55;;;;;;;11.07;1.55;;;8.50;99.90;;;;;;5114250;28;20509;-72
2023/05/17 05:23:22;;;;;;;10.43;1.90;;;8.30;99.90;;;;;;5114417;28;20119;-71
2023/05/17 05:25:51;;;;;;;7.82;1.63;;;8.30;99.90;;;;;;5114365;27;20071;-71
2023/05/17 05:28:16;;;;;;;14.88;2.10;;;8.40;99.90;;;;;;5114307;28;20050;-72
2023/05/17 05:30:42;;;;;;;10.40;2.00;;;8.40;99.90;;;;;;5114196;28;20043;-71
2023/05/17 05:33:08;;;;;;;9.65;1.98;;;8.50;99.90;;;;;;5114508;28;20035;-70
2023/05/17 05:35:33;;;;;;;9.85;1.90;;;8.60;99.90;;;;;;5114191;28;20474;-71
2023/05/17 05:37:59;;;;;;;6.40;1.83;;;8.60;99.90;;;;;;5114595;28;20486;-71
2023/05/17 05:40:25;;;;;;;9.10;3.90;;;8.70;99.90;;;;;;5114219;28;20124;-71
2023/05/17 05:42:51;;;;;;;4.25;1.83;;;8.80;99.90;;;;;;5114075;28;20057;-71
2023/05/17 05:45:17;;;;;;;3.80;1.80;;;8.90;99.90;;;;;;5112979;28;20035;-71
2023/05/17 05:47:42;;;;;;;7.05;1.95;;;8.90;99.90;;;;;;5112744;28;20035;-71
2023/05/17 05:50:08;;;;;;;5.88;1.58;;;9.00;99.90;;;;;;5113750;28;20051;-70
2023/05/17 05:52:37;;;;;;;3.22;1.52;;;9.10;99.90;;;;;;5113949;28;20769;-70
2023/05/17 05:55:06;;;;;;;9.88;1.90;;;9.20;99.90;;;;;;5112766;28;20079;-71
2023/05/17 05:57:31;;;;;;;3.97;1.20;;;9.30;99.90;;;;;;5113759;28;20498;-70
2023/05/17 05:59:59;;;;;;;4.00;1.40;;;9.90;99.90;;;;;;5112725;28;20032;-70
2023/05/17 06:02:25;;;;;;;6.20;1.30;;;9.40;99.90;;;;;;5113691;28;20498;-71
2023/05/17 06:04:51;;;;;;;4.30;1.35;;;9.60;99.90;;;;;;5113894;28;20059;-71
2023/05/17 06:07:16;;;;;;;4.78;1.55;;;9.70;99.90;;;;;;5113823;28;20348;-71
2023/05/17 06:09:42;;;;;;;4.47;1.20;;;9.70;99.90;;;;;;5113902;28;20043;-70
2023/05/17 06:12:08;;;;;;;6.78;1.33;;;9.90;99.90;;;;;;5113788;28;20040;-71
2023/05/17 06:14:36;;;;;;;4.30;1.40;;;10.20;99.90;;;;;;5113670;28;20039;-71
2023/05/17 06:17:01;;;;;;;4.13;1.15;;;10.20;99.90;;;;;;5113727;28;20039;-72
2023/05/17 06:19:27;;;;;;;6.35;1.52;;;10.30;99.90;;;;;;5113774;28;20035;-70
2023/05/17 06:21:53;;;;;;;6.75;1.17;;;10.40;99.90;;;;;;5113761;28;20078;-71
2023/05/17 06:24:18;;;;;;;7.40;1.38;;;10.50;99.90;;;;;;5114585;28;20032;-72
2023/05/17 06:26:45;;;;;;;7.72;1.40;;;10.60;99.90;;;;;;5117741;28;20036;-71
2023/05/17 06:29:11;;;;;;;8.27;1.50;;;10.50;99.90;;;;;;5117929;28;20047;-71
2023/05/17 06:31:37;;;;;;;6.55;1.30;;;10.50;99.90;;;;;;5117895;28;20062;-71
2023/05/17 06:34:02;;;;;;;3.67;1.05;;;10.60;99.90;;;;;;5117610;28;20126;-71
2023/05/17 06:36:28;;;;;;;4.55;1.23;;;10.60;99.90;;;;;;5117220;28;20035;-70
2023/05/17 06:38:54;;;;;;;6.18;1.27;;;10.70;99.90;;;;;;5117509;28;20050;-71
2023/05/17 06:41:20;;;;;;;3.03;1.20;;;10.70;99.90;;;;;;5117698;28;20077;-72
2023/05/17 06:43:48;;;;;;;9.70;1.77;;;10.80;99.90;;;;;;5117698;28;20348;-71
2023/05/17 06:46:14;;;;;;;4.80;1.33;;;10.80;99.90;;;;;;5117492;28;20089;-72
2023/05/17 06:48:39;;;;;;;6.15;1.95;;;11.00;99.90;;;;;;5117388;28;20464;-71
2023/05/17 06:51:05;;;;;;;6.32;1.42;;;11.10;99.90;;;;;;5117275;28;20039;-71
2023/05/17 06:53:30;;;;;;;9.80;1.42;;;11.10;99.90;;;;;;5117220;28;20075;-70
2023/05/17 06:55:56;;;;;;;5.00;1.42;;;11.10;99.90;;;;;;5117144;28;20040;-71
2023/05/17 06:58:22;;;;;;;7.43;1.55;;;11.10;99.90;;;;;;5117135;28;20044;-70
2023/05/17 07:00:47;;;;;;;3.50;1.20;;;10.90;99.90;;;;;;5117093;28;20080;-70
2023/05/17 07:03:13;;;;;;;8.68;1.63;;;10.80;99.90;;;;;;5117060;28;20478;-70
2023/05/17 07:05:38;;;;;;;6.50;1.20;;;10.80;99.90;;;;;;5117078;28;20047;-72
2023/05/17 07:08:04;;;;;;;10.57;1.45;;;10.70;99.90;;;;;;5116964;28;20044;-71
2023/05/17 07:10:30;;;;;;;5.28;1.48;;;10.70;99.90;;;;;;5117272;28;20040;-71
2023/05/17 07:12:56;;;;;;;3.65;1.42;;;10.70;99.90;;;;;;5116956;28;20332;-70
2023/05/17 07:15:21;;;;;;;5.80;1.65;;;10.60;99.90;;;;;;5116781;28;20096;-72
2023/05/17 07:17:47;;;;;;;3.33;1.15;;;10.90;99.90;;;;;;5116760;28;20040;-72
2023/05/17 07:20:13;;;;;;;6.07;1.95;;;11.20;99.90;;;;;;5116722;28;20138;-70
2023/05/17 07:22:39;;;;;;;4.53;1.50;;;11.40;99.90;;;;;;5116719;28;20039;-71
2023/05/17 07:25:05;;;;;;;5.05;1.50;;;11.40;99.90;;;;;;5116552;28;20043;-70
2023/05/17 07:27:31;;;;;;;7.95;2.33;;;11.60;99.90;;;;;;5116801;28;20118;-72
2023/05/17 07:29:56;;;;;;;7.28;1.50;;;11.90;99.90;;;;;;5116573;28;20486;-69
2023/05/17 07:32:22;;;;;;;7.18;2.10;;;11.70;99.90;;;;;;5116610;28;20035;-71
2023/05/17 07:34:48;;;;;;;5.20;1.10;;;11.70;99.90;;;;;;5116337;28;20367;-73
2023/05/17 07:37:13;;;;;;;5.30;1.40;;;11.60;99.90;;;;;;5116227;28;20039;-71
2023/05/17 07:39:39;;;;;;;5.95;1.30;;;11.50;99.90;;;;;;5116742;28;20039;-72
2023/05/17 07:42:05;;;;;;;8.50;1.50;;;11.40;99.90;;;;;;5115450;28;20367;-72
2023/05/17 07:44:31;;;;;;;10.18;1.67;;;11.30;99.90;;;;;;5116184;28;20087;-71
2023/05/17 07:46:56;;;;;;;6.15;1.50;;;11.40;99.90;;;;;;5116400;28;20479;-73
2023/05/17 07:49:23;;;;;;;7.55;1.70;;;11.40;99.90;;;;;;5116025;28;20046;-71
2023/05/17 07:51:48;;;;;;;5.47;1.73;;;11.50;99.90;;;;;;5116222;28;20035;-71
2023/05/17 07:54:26;;;;;;;9.80;1.95;;;11.50;99.90;;;;;;5115875;28;20217;-71
2023/05/17 07:56:53;;;;;;;7.55;1.58;;;11.90;99.90;;;;;;5116007;28;20364;-71
2023/05/17 07:59:20;;;;;;;8.43;1.40;;;11.70;99.90;;;;;;5116079;28;20035;-72
2023/05/17 08:01:46;;;;;;;5.03;2.22;;;11.70;99.90;;;;;;5115913;28;20036;-72
2023/05/17 08:04:13;;;;;;;5.78;1.38;;;11.50;99.90;;;;;;5115610;28;20044;-72
2023/05/17 08:06:39;;;;;;;7.65;1.58;;;11.60;99.90;;;;;;5116285;28;20078;-71
2023/05/17 08:09:05;;;;;;;5.00;1.30;;;11.60;99.90;;;;;;5115716;28;20047;-70
2023/05/17 08:11:33;;;;;;;6.70;1.75;;;11.60;99.90;;;;;;5116282;28;20039;-71
2023/05/17 08:13:59;;;;;;;8.73;2.60;;;11.60;99.90;;;;;;5115872;28;20043;-71
2023/05/17 08:16:25;;;;;;;10.45;1.60;;;11.60;99.90;;;;;;5115660;27;20188;-71
2023/05/17 08:18:51;;;;;;;5.57;1.67;;;11.90;99.90;;;;;;5115568;28;20039;-71
2023/05/17 08:21:16;;;;;;;10.38;2.00;;;11.80;99.90;;;;;;5115571;28;20292;-71
2023/05/17 08:23:43;;;;;;;7.90;1.95;;;11.70;99.90;;;;;;5115553;28;20035;-71
2023/05/17 08:26:08;;;;;;;9.48;1.80;;;11.90;99.90;;;;;;5115407;28;20074;-71
2023/05/17 08:28:34;;;;;;;3.85;1.30;;;11.90;99.90;;;;;;5115425;28;20082;-71
2023/05/17 08:31:00;;;;;;;8.02;1.67;;;11.90;99.90;;;;;;5115490;28;20035;-70
2023/05/17 08:33:26;;;;;;;14.15;2.70;;;12.00;99.90;;;;;;5115255;28;20489;-71
2023/05/17 08:35:54;;;;;;;8.00;1.70;;;11.90;99.90;;;;;;5115249;28;20145;-72
2023/05/17 08:38:22;;;;;;;12.25;1.88;;;11.70;99.90;;;;;;5115174;28;20048;-72
2023/05/17 08:40:55;;;;;;;6.93;1.85;;;11.80;99.90;;;;;;5115359;28;20032;-71
2023/05/17 08:43:21;;;;;;;6.95;2.03;;;11.70;99.90;;;;;;5115080;27;20039;-71
2023/05/17 08:45:49;;;;;;;14.70;1.95;;;11.70;99.90;;;;;;5115041;28;20064;-71
2023/05/17 08:48:16;;;;;;;9.30;1.52;;;11.70;99.90;;;;;;5114472;28;20097;-71
2023/05/17 08:50:45;;;;;;;9.73;1.60;;;11.80;99.90;;;;;;5115034;28;20047;-71
2023/05/17 08:53:12;;;;;;;9.18;1.83;;;11.90;99.90;;;;;;5115272;28;20132;-72
2023/05/17 08:55:40;;;;;;;8.55;2.40;;;11.90;99.90;;;;;;5115045;28;20084;-71
2023/05/17 08:58:06;;;;;;;7.80;2.22;;;11.70;99.90;;;;;;5114850;28;20031;-72
2023/05/17 09:00:32;;;;;;;3.45;1.30;;;11.80;99.90;;;;;;5114500;28;20056;-72
2023/05/17 09:03:00;;;;;;;11.00;1.85;;;11.80;99.90;;;;;;5114770;28;20123;-72
2023/05/17 09:05:27;;;;;;;9.30;2.30;;;11.90;99.90;;;;;;5114749;28;20059;-71
2023/05/17 09:07:54;;;;;;;5.45;1.67;;;12.10;99.90;;;;;;5114655;28;20035;-70
2023/05/17 09:10:19;;;;;;;;;;;12.80;99.90;;;;;;5115073;28;20484;-72
2023/05/17 09:12:45;;;;;;;12.45;2.35;;;12.50;99.90;;;;;;5114543;28;19915;-70
2023/05/17 09:15:15;;;;;;;12.95;1.88;;;12.50;99.90;;;;;;5114450;28;20040;-71
2023/05/17 09:17:42;;;;;;;8.73;1.52;;;12.50;99.90;;;;;;5113301;28;20424;-70
2023/05/17 09:20:08;;;;;;;9.40;1.75;;;12.40;99.90;;;;;;5114490;28;20097;-72
2023/05/17 09:22:35;;;;;;;12.65;2.35;;;12.50;99.90;;;;;;5114430;28;20035;-71
2023/05/17 09:25:03;;;;;;;5.60;1.88;;;12.60;99.90;;;;;;5114585;28;20043;-72
2023/05/17 09:27:31;;;;;;;9.25;1.73;;;13.00;99.90;;;;;;5114331;28;20383;-72
2023/05/17 09:29:57;;;;;;;6.78;1.50;;;12.80;99.90;;;;;;5114197;28;20113;-71
2023/05/17 09:32:27;;;;;;;6.18;1.45;;;12.90;99.90;;;;;;5114259;28;20047;-71
2023/05/17 09:34:55;;;;;;;6.15;1.17;;;12.70;99.90;;;;;;5114494;28;20130;-72
2023/05/17 09:37:21;;;;;;;7.88;1.63;;;12.70;99.90;;;;;;5114101;28;20536;-72
2023/05/17 09:39:47;;;;;;;;;;;12.60;99.90;;;;;;5114702;27;20043;-72
2023/05/17 09:42:16;;;;;;;5.38;1.50;;;12.70;99.90;;;;;;5114089;28;19963;-71
2023/05/17 09:44:52;;;;;;;4.00;1.27;;;12.70;99.90;;;;;;5114197;28;20084;-71
2023/05/17 09:47:36;;;;;;;5.88;1.48;;;12.80;99.90;;;;;;5114205;28;20306;-72
2023/05/17 09:50:02;;;;;;;4.75;1.70;;;12.80;99.90;;;;;;5114124;28;20038;-72
2023/05/17 09:52:30;;;;;;;7.80;2.53;;;12.90;99.90;;;;;;5114064;28;20035;-72
2023/05/17 09:54:59;;;;;;;6.97;1.77;;;13.30;99.90;;;;;;5113688;28;20043;-72
2023/05/17 09:57:27;;;;;;;10.88;1.67;;;13.60;99.90;;;;;;5113918;28;20109;-72
2023/05/17 09:59:56;;;;;;;7.22;1.27;;;13.70;99.90;;;;;;5115308;28;20036;-72
2023/05/17 10:02:31;;;;;;;5.68;1.55;;;13.70;99.90;;;;;;5118203;28;20078;-71
2023/05/17 10:04:58;;;;;;;5.25;1.60;;;13.90;99.90;;;;;;5118488;28;20059;-71
2023/05/17 10:07:25;;;;;;;4.85;1.73;;;13.90;99.90;;;;;;5118124;28;20051;-71
2023/05/17 10:09:54;;;;;;;10.52;1.55;;;13.70;99.90;;;;;;5118087;28;20039;-72
2023/05/17 10:12:24;;;;;;;6.43;1.58;;;13.60;99.90;;;;;;5118047;28;20118;-71
2023/05/17 10:14:54;;;;;;;10.13;1.77;;;13.40;99.90;;;;;;5117761;28;20044;-71
2023/05/17 10:17:20;;;;;;;6.50;1.45;;;13.50;99.90;;;;;;5116639;28;20042;-71
2023/05/17 10:19:46;;;;;;;8.35;2.15;;;13.50;99.90;;;;;;5117997;27;20387;-71
2023/05/17 10:22:13;;;;;;;10.00;1.87;;;13.50;99.90;;;;;;5117734;28;20043;-71
2023/05/17 10:24:39;;;;;;;6.35;1.50;;;13.50;99.90;;;;;;5116714;28;20137;-71
2023/05/17 10:27:08;;;;;;;5.45;1.73;;;13.50;99.90;;;;;;5118086;28;20044;-70
2023/05/17 10:29:37;;;;;;;7.72;1.70;;;13.50;99.90;;;;;;5117669;28;20039;-71
2023/05/17 10:32:08;;;;;;;6.65;1.50;;;13.20;99.90;;;;;;5117588;28;20475;-71
2023/05/17 10:34:38;;;;;;;6.07;1.50;;;13.00;99.90;;;;;;5117569;28;20164;-72
2023/05/17 10:37:04;;;;;;;5.85;1.55;;;12.80;99.90;;;;;;5118269;28;20065;-71
2023/05/17 10:39:33;;;;;;;5.45;1.15;;;12.80;99.90;;;;;;5117586;28;20119;-72
2023/05/17 10:42:06;;;;;;;8.93;1.30;;;12.80;99.90;;;;;;5117634;28;20036;-71
2023/05/17 10:44:33;;;;;;;5.55;1.15;;;13.00;99.90;;;;;;5116577;28;20047;-71
2023/05/17 10:46:59;;;;;;;5.85;1.25;;;13.20;99.90;;;;;;5117364;28;20042;-72
2023/05/17 10:49:28;;;;;;;7.37;1.43;;;13.30;99.90;;;;;;5117389;28;20044;-71
2023/05/17 10:51:55;;;;;;;6.03;1.38;;;13.40;99.90;;;;;;5117756;28;20119;-71
2023/05/17 10:54:38;;;;;;;5.05;1.00;;;13.50;99.90;;;;;;5117254;28;20048;-72
2023/05/17 10:57:07;;;;;;;6.25;1.40;;;13.60;99.90;;;;;;5117227;28;20571;-72
2023/05/17 10:59:34;;;;;;;6.03;1.20;;;13.40;99.90;;;;;;5117126;28;20157;-72
2023/05/17 11:02:00;;;;;;;;;;;13.50;99.90;;;;;;5118027;28;20047;-70
2023/05/17 11:04:38;;;;;;;4.90;1.45;;;13.50;99.90;;;;;;5116690;28;19935;-71
2023/05/17 11:07:17;;;;;;;7.13;1.30;;;13.50;99.90;;;;;;5117105;28;20035;-71
2023/05/17 11:09:44;;;;;;;5.45;1.50;;;13.80;99.20;;;;;;5117116;28;20052;-71
2023/05/17 11:12:11;;;;;;;4.85;1.50;;;14.20;99.50;;;;;;5116457;28;20123;-72
2023/05/17 11:14:53;;;;;;;8.18;1.67;;;14.40;99.30;;;;;;5116902;28;20040;-71
2023/05/17 11:17:20;;;;;;;6.13;1.10;;;14.40;98.70;;;;;;5117081;28;20040;-71
2023/05/17 11:19:58;;;;;;;4.78;1.25;;;14.40;99.90;;;;;;5116779;28;20040;-71
2023/05/17 11:22:27;;;;;;;9.35;1.10;;;14.40;99.50;;;;;;5116824;28;20421;-73
2023/05/17 11:24:56;;;;;;;5.10;1.30;;;14.10;99.90;;;;;;5116594;28;20409;-71
2023/05/17 11:27:31;;;;;;;5.97;1.35;;;14.00;99.90;;;;;;5116300;28;20055;-71
2023/05/17 11:29:59;;;;;;;6.25;1.55;;;13.70;99.90;;;;;;5116923;28;20036;-72
2023/05/17 11:32:29;;;;;;;6.93;1.45;;;13.70;99.90;;;;;;5116268;28;20491;-72
2023/05/17 11:34:58;;;;;;;3.85;1.40;;;13.80;99.90;;;;;;5115472;28;20371;-71
2023/05/17 11:37:28;;;;;;;4.07;1.10;;;14.00;99.90;;;;;;5116276;28;20075;-72
2023/05/17 11:40:05;;;;;;;2.50;1.20;;;14.00;99.90;;;;;;5116735;28;20040;-71
2023/05/17 11:42:31;;;;;;;6.70;1.30;;;14.20;99.90;;;;;;5116519;28;20093;-72
2023/05/17 11:44:59;;;;;;;6.25;1.08;;;14.50;99.60;;;;;;5116334;28;20069;-71
2023/05/17 11:47:26;;;;;;;3.38;1.30;;;14.60;99.90;;;;;;5116231;28;20071;-72
2023/05/17 11:49:59;;;;;;;4.68;1.33;;;14.60;99.40;;;;;;5116138;28;20386;-71
2023/05/17 11:52:26;;;;;;;5.70;1.48;;;14.60;99.90;;;;;;5116101;28;20122;-71
2023/05/17 11:54:52;;;;;;;7.35;1.20;;;14.50;99.70;;;;;;5115185;28;20079;-71
2023/05/17 11:57:20;;;;;;;4.20;1.40;;;14.30;98.70;;;;;;5116226;28;20438;-72
2023/05/17 11:59:46;;;;;;;3.38;1.45;;;14.10;98.60;;;;;;5116001;28;20075;-72
2023/05/17 12:02:29;;;;;;;3.03;1.30;;;14.30;99.90;;;;;;5115899;28;20075;-71
2023/05/17 12:04:55;;;;;;;2.92;1.15;;;14.70;99.90;;;;;;5115709;28;20495;-72
2023/05/17 12:07:21;;;;;;;4.40;1.37;;;14.80;97.80;;;;;;5115846;28;20071;-73
2023/05/17 12:09:47;;;;;;;3.47;1.13;;;14.80;98.10;;;;;;5115742;28;20039;-70
2023/05/17 12:12:13;;;;;;;3.33;1.25;;;14.60;98.00;;;;;;5115818;28;20048;-71
2023/05/17 12:14:42;;;;;;;4.37;1.10;;;14.70;98.50;;;;;;5114515;28;20084;-71
2023/05/17 12:17:08;;;;;;;6.72;1.45;;;14.80;98.30;;;;;;5115510;28;20494;-71
2023/05/17 12:19:34;;;;;;;3.00;1.03;;;14.90;97.70;;;;;;5114607;28;20047;-71
2023/05/17 12:22:13;;;;;;;8.25;1.52;;;15.00;98.70;;;;;;5114749;28;20274;-73
2023/05/17 12:24:40;;;;;;;3.45;1.20;;;14.90;98.80;;;;;;5115834;28;20092;-72
2023/05/17 12:27:06;;;;;;;5.18;1.30;;;14.90;98.90;;;;;;5115677;28;20405;-71
2023/05/17 12:29:32;;;;;;;4.27;1.30;;;14.80;97.30;;;;;;5115338;28;20130;-72
2023/05/17 12:32:00;;;;;;;6.30;1.37;;;14.80;98.40;;;;;;5115126;28;20035;-72
2023/05/17 12:34:27;;;;;;;4.13;1.13;;;15.10;98.00;;;;;;5115107;28;20491;-71
2023/05/17 12:36:53;;;;;;;5.22;1.40;;;15.10;96.60;;;;;;5115243;28;20096;-71
2023/05/17 12:39:22;;;;;;;3.47;1.15;;;15.00;96.40;;;;;;5115483;27;20039;-72
2023/05/17 12:41:50;;;;;;;5.55;1.20;;;15.10;98.00;;;;;;5115224;28;20040;-72
2023/05/17 12:44:19;;;;;;;4.68;1.52;;;15.00;97.60;;;;;;5115107;28;20069;-72
2023/05/17 12:46:52;;;;;;;3.60;1.20;;;15.10;96.90;;;;;;5114768;28;20490;-71
2023/05/17 12:49:20;;;;;;;3.80;1.45;;;15.30;98.00;;;;;;5115142;28;20062;-71
2023/05/17 12:51:46;;;;;;;4.90;1.48;;;15.80;98.20;;;;;;5113893;28;20046;-72